Time;durP1;ratioP1;P1;durP2;ratioP2;P2;SDS_P1;SDS_P2;PMS_P1;PMS_P2;Temp;Humidity;BMP_temperature;BMP_pressure;BME280_temperature;BME280_humidity;BME280_pressure;Samples;Min_cycle;Max_cycle;Signal;HPM_P1;HPM_P2
2021/06/04 00:01:32;;;;;;;5.57;2.40;;;22.60;83.00;;;;;;4924181;29;20048;-72
2021/06/04 00:04:00;;;;;;;2.22;1.33;;;22.90;83.70;;;;;;4928148;29;20165;-71
2021/06/04 00:06:28;;;;;;;2.03;1.25;;;23.20;79.70;;;;;;4923101;29;20020;-72
2021/06/04 00:08:55;;;;;;;3.67;1.60;;;23.20;79.50;;;;;;4928242;29;20032;-72
2021/06/04 00:11:30;;;;;;;1.58;1.10;;;23.10;81.30;;;;;;4924773;29;20043;-75
2021/06/04 00:14:07;;;;;;;0.60;0.60;;;23.20;83.40;;;;;;4922739;29;20039;-75
2021/06/04 00:16:48;;;;;;;1.45;0.30;;;23.70;78.80;;;;;;4926609;29;20075;-72
2021/06/04 00:19:19;;;;;;;0.40;0.22;;;23.70;74.00;;;;;;4928901;29;20055;-72
2021/06/04 00:21:54;;;;;;;0.38;0.20;;;23.70;71.70;;;;;;4928612;29;20093;-73
2021/06/04 00:24:22;;;;;;;0.57;0.40;;;23.50;69.20;;;;;;4928509;29;20039;-77
2021/06/04 00:26:51;;;;;;;0.40;0.20;;;23.20;71.90;;;;;;4925019;29;20122;-72
2021/06/04 00:29:19;;;;;;;0.85;0.30;;;23.20;72.00;;;;;;4929952;29;20118;-76
2021/06/04 00:31:48;;;;;;;0.38;0.20;;;23.30;71.10;;;;;;4928172;29;20102;-75
2021/06/04 00:34:16;;;;;;;0.30;0.30;;;23.30;69.10;;;;;;4926501;29;20089;-74
2021/06/04 00:36:44;;;;;;;0.10;0.10;;;23.50;72.00;;;;;;4926898;29;20028;-76
2021/06/04 00:39:14;;;;;;;0.65;0.30;;;23.80;69.20;;;;;;4909709;29;20524;-74
2021/06/04 00:41:59;;;;;;;0.82;0.22;;;23.80;68.00;;;;;;4923070;29;20036;-74
2021/06/04 00:44:28;;;;;;;0.40;0.30;;;23.90;66.60;;;;;;4911485;29;20371;-71
2021/06/04 00:46:56;;;;;;;1.10;0.40;;;24.00;66.10;;;;;;4921548;29;20074;-72
2021/06/04 00:49:25;;;;;;;0.10;0.10;;;24.10;65.70;;;;;;4929408;29;20028;-75
2021/06/04 00:52:02;;;;;;;0.15;0.13;;;24.40;66.30;;;;;;4925967;29;20087;-74
2021/06/04 00:54:30;;;;;;;0.68;0.20;;;24.40;65.90;;;;;;4924535;29;20035;-74
2021/06/04 00:56:58;;;;;;;0.17;0.10;;;24.40;64.30;;;;;;4924834;29;20030;-73
2021/06/04 00:59:30;;;;;;;0.17;0.17;;;24.50;62.40;;;;;;4925777;29;20059;-73
2021/06/04 01:01:58;;;;;;;2.00;0.25;;;24.90;62.70;;;;;;4923338;29;20479;-74
2021/06/04 01:04:27;;;;;;;0.52;0.20;;;25.30;60.90;;;;;;4926064;29;20490;-74
2021/06/04 01:07:08;;;;;;;0.73;0.10;;;25.20;59.90;;;;;;4925374;29;20355;-73
2021/06/04 01:09:59;;;;;;;1.05;0.10;;;25.30;62.20;;;;;;4923526;29;20034;-72
2021/06/04 01:13:14;;;;;;;1.00;0.20;;;25.60;60.20;;;;;;4923709;29;20948;-72
2021/06/04 01:16:10;;;;;;;0.10;0.10;;;25.50;59.60;;;;;;4913105;29;21555;-73
2021/06/04 01:18:58;;;;;;;0.40;0.10;;;25.60;59.00;;;;;;4915667;29;20573;-72
2021/06/04 01:21:44;;;;;;;0.15;0.15;;;25.70;62.70;;;;;;4928494;29;20090;-72
2021/06/04 01:24:32;;;;;;;1.25;0.68;;;26.30;58.50;;;;;;4927314;29;20498;-73
2021/06/04 01:27:08;;;;;;;0.82;0.30;;;26.70;59.90;;;;;;4921105;29;20158;-71
2021/06/04 01:29:41;;;;;;;;;;;26.90;59.00;;;;;;4923551;29;20475;-74
2021/06/04 01:32:25;;;;;;;0.10;0.10;;;27.10;54.30;;;;;;4924762;29;20002;-74
2021/06/04 01:35:02;;;;;;;0.45;0.20;;;26.70;53.10;;;;;;4923572;29;20055;-73
2021/06/04 01:37:31;;;;;;;0.25;0.10;;;26.10;57.00;;;;;;4923429;29;20043;-68
2021/06/04 01:40:08;;;;;;;0.40;0.10;;;26.10;55.80;;;;;;4924231;29;20085;-69
2021/06/04 01:42:39;;;;;;;0.10;0.10;;;25.80;54.70;;;;;;4924036;29;20027;-70
2021/06/04 01:45:13;;;;;;;0.30;0.20;;;25.90;53.80;;;;;;4924252;29;20491;-68
2021/06/04 01:47:52;;;;;;;0.32;0.20;;;25.70;55.60;;;;;;4920288;29;20443;-69
2021/06/04 01:50:31;;;;;;;0.30;0.22;;;25.50;52.00;;;;;;4922248;29;20032;-69
2021/06/04 01:53:04;;;;;;;2.35;0.32;;;25.50;55.50;;;;;;4922226;29;20075;-69
2021/06/04 01:55:35;;;;;;;0.20;0.20;;;25.60;55.70;;;;;;4904009;29;20040;-69
2021/06/04 01:58:09;;;;;;;0.82;0.30;;;25.60;52.70;;;;;;4921103;29;20036;-69
2021/06/04 02:00:49;;;;;;;0.70;0.30;;;25.60;56.20;;;;;;4922141;29;20036;-70
2021/06/04 02:03:19;;;;;;;0.35;0.20;;;25.60;55.40;;;;;;4923273;29;20372;-70
2021/06/04 02:05:47;;;;;;;0.50;0.30;;;25.70;55.20;;;;;;4922481;29;20087;-73
2021/06/04 02:08:22;;;;;;;0.35;0.30;;;24.70;53.60;;;;;;4924842;29;20834;-70
2021/06/04 02:10:51;;;;;;;0.22;0.20;;;23.60;57.10;;;;;;4926286;29;20042;-73
2021/06/04 02:13:19;;;;;;;0.22;0.20;;;22.90;60.50;;;;;;4927837;29;20036;-74
2021/06/04 02:15:56;;;;;;;0.32;0.20;;;22.80;61.30;;;;;;4927773;29;20036;-73
2021/06/04 02:18:37;;;;;;;0.57;0.30;;;22.60;60.10;;;;;;4926434;29;20020;-72
2021/06/04 02:21:20;;;;;;;0.40;0.30;;;22.00;60.70;;;;;;4923795;29;20114;-73
2021/06/04 02:23:54;;;;;;;0.38;0.30;;;21.70;62.20;;;;;;4926412;29;20048;-72
2021/06/04 02:26:44;;;;;;;2.08;0.40;;;21.80;62.30;;;;;;4926328;29;20024;-73
2021/06/04 02:29:36;;;;;;;1.38;1.10;;;22.30;61.40;;;;;;4925134;29;20038;-71
2021/06/04 02:32:17;;;;;;;0.85;0.40;;;22.30;61.60;;;;;;4925882;29;20078;-74
2021/06/04 02:34:57;;;;;;;1.27;0.30;;;22.20;61.90;;;;;;4926067;29;20123;-72
2021/06/04 02:37:50;;;;;;;0.60;0.55;;;22.00;61.00;;;;;;4925423;29;20032;-73
2021/06/04 02:40:32;;;;;;;0.93;0.52;;;21.50;62.30;;;;;;4927798;29;20050;-74
2021/06/04 02:43:06;;;;;;;0.28;0.20;;;21.10;62.30;;;;;;4926171;29;20051;-73
2021/06/04 02:45:51;;;;;;;2.10;0.25;;;20.70;62.80;;;;;;4926112;29;20118;-73
2021/06/04 02:48:22;;;;;;;0.40;0.30;;;20.50;64.50;;;;;;4928080;29;20359;-74
2021/06/04 02:51:08;;;;;;;0.40;0.30;;;20.20;65.20;;;;;;4924692;29;20020;-73
2021/06/04 02:53:39;;;;;;;0.45;0.30;;;20.20;65.40;;;;;;4923878;29;20032;-73
2021/06/04 02:56:18;;;;;;;1.10;0.20;;;20.00;65.00;;;;;;4924757;29;20114;-72
2021/06/04 02:59:09;;;;;;;0.80;0.20;;;19.90;66.30;;;;;;4923991;29;20063;-74
2021/06/04 03:01:41;;;;;;;0.40;0.28;;;19.80;65.50;;;;;;4928153;29;20070;-73
2021/06/04 03:04:10;;;;;;;0.95;0.40;;;19.70;66.40;;;;;;4925812;29;20036;-74
2021/06/04 03:06:41;;;;;;;0.43;0.22;;;19.70;67.10;;;;;;4926155;29;20036;-73
2021/06/04 03:09:13;;;;;;;0.40;0.30;;;19.60;66.90;;;;;;4926581;29;20141;-73
2021/06/04 03:11:42;;;;;;;0.47;0.40;;;19.50;67.40;;;;;;4911506;29;20031;-74
2021/06/04 03:14:13;;;;;;;0.50;0.30;;;19.40;66.30;;;;;;4926042;29;20466;-74
2021/06/04 03:16:40;;;;;;;0.30;0.30;;;19.50;67.00;;;;;;4923347;29;20036;-74
2021/06/04 03:19:11;;;;;;;0.35;0.30;;;19.50;65.90;;;;;;4926510;29;20501;-73
2021/06/04 03:21:46;;;;;;;0.63;0.40;;;19.50;66.30;;;;;;4925634;29;20442;-72
2021/06/04 03:24:16;;;;;;;0.45;0.40;;;19.50;67.60;;;;;;4925548;29;20046;-73
2021/06/04 03:26:44;;;;;;;0.40;0.30;;;19.60;66.00;;;;;;4925195;29;20166;-73
2021/06/04 03:29:14;;;;;;;0.35;0.35;;;19.50;67.80;;;;;;4928205;29;20034;-73
2021/06/04 03:31:45;;;;;;;1.23;0.50;;;19.60;66.60;;;;;;4928034;29;20051;-72
2021/06/04 03:34:13;;;;;;;0.60;0.40;;;19.60;66.40;;;;;;4926182;29;20040;-73
2021/06/04 03:36:44;;;;;;;0.40;0.30;;;19.60;65.50;;;;;;4926316;29;20039;-74
2021/06/04 03:39:17;;;;;;;0.40;0.30;;;19.40;67.30;;;;;;4928037;29;20024;-73
2021/06/04 03:41:47;;;;;;;0.40;0.40;;;19.50;66.70;;;;;;4925585;29;20505;-72
2021/06/04 03:44:17;;;;;;;1.38;0.40;;;19.30;68.10;;;;;;4925422;29;20082;-73
2021/06/04 03:46:45;;;;;;;0.30;0.20;;;19.30;68.20;;;;;;4925236;29;20032;-73
2021/06/04 03:49:15;;;;;;;0.30;0.30;;;19.30;68.10;;;;;;4926027;29;20032;-71
2021/06/04 03:51:43;;;;;;;0.47;0.35;;;19.30;67.50;;;;;;4925754;29;20075;-71
2021/06/04 03:54:18;;;;;;;0.80;0.60;;;19.30;69.20;;;;;;4923373;29;20042;-72
2021/06/04 03:56:46;;;;;;;2.25;0.77;;;19.30;67.70;;;;;;4927393;29;20336;-71
2021/06/04 03:59:14;;;;;;;0.95;0.45;;;19.30;67.90;;;;;;4922676;29;20047;-73
2021/06/04 04:01:51;;;;;;;2.40;0.80;;;19.10;67.90;;;;;;4926536;29;20072;-72
2021/06/04 04:04:20;;;;;;;0.75;0.50;;;19.00;69.30;;;;;;4923898;29;20027;-73
2021/06/04 04:06:47;;;;;;;0.98;0.50;;;19.00;70.40;;;;;;4907587;28;20031;-73
2021/06/04 04:09:15;;;;;;;1.17;0.40;;;19.00;71.00;;;;;;4918640;29;20031;-75
2021/06/04 04:11:46;;;;;;;0.57;0.40;;;18.90;69.40;;;;;;4923502;29;20118;-73
2021/06/04 04:14:14;;;;;;;1.05;0.40;;;18.90;68.90;;;;;;4925004;29;20035;-73
2021/06/04 04:16:42;;;;;;;0.82;0.52;;;18.90;69.20;;;;;;4928184;29;20066;-73
2021/06/04 04:19:09;;;;;;;1.80;0.40;;;18.90;67.20;;;;;;4925526;29;20032;-73
2021/06/04 04:21:38;;;;;;;0.90;0.40;;;18.80;69.20;;;;;;4925875;29;20431;-71
2021/06/04 04:24:11;;;;;;;0.30;0.30;;;18.70;68.90;;;;;;4924103;29;20039;-71
2021/06/04 04:26:41;;;;;;;0.68;0.43;;;18.80;69.00;;;;;;4928287;29;20528;-71
2021/06/04 04:29:10;;;;;;;1.20;0.40;;;18.60;69.00;;;;;;4924588;29;20394;-72
2021/06/04 04:31:44;;;;;;;0.43;0.30;;;18.50;69.10;;;;;;4926644;29;20027;-72
2021/06/04 04:34:13;;;;;;;0.52;0.38;;;18.60;68.50;;;;;;4924738;29;20039;-72
2021/06/04 04:36:45;;;;;;;0.73;0.52;;;18.60;68.40;;;;;;4924280;29;20056;-72
2021/06/04 04:39:17;;;;;;;4.18;0.50;;;18.70;68.10;;;;;;4926878;29;20039;-72
2021/06/04 04:41:46;;;;;;;1.13;0.98;;;18.80;66.80;;;;;;4925503;29;20115;-73
2021/06/04 04:44:15;;;;;;;0.50;0.30;;;18.90;67.00;;;;;;4924530;29;20546;-73
2021/06/04 04:46:43;;;;;;;1.45;0.85;;;18.80;68.00;;;;;;4928822;29;20079;-72
2021/06/04 04:49:10;;;;;;;1.00;0.60;;;18.70;67.90;;;;;;4923253;29;20039;-72
2021/06/04 04:51:39;;;;;;;1.08;0.50;;;18.60;68.00;;;;;;4924978;29;20055;-72
2021/06/04 04:54:08;;;;;;;0.38;0.32;;;18.50;68.50;;;;;;4923258;29;20063;-70
2021/06/04 04:56:36;;;;;;;1.35;0.50;;;18.40;68.70;;;;;;4924516;29;20035;-70
2021/06/04 04:59:05;;;;;;;1.13;0.50;;;18.30;69.20;;;;;;4921967;29;20032;-70
2021/06/04 05:01:32;;;;;;;0.88;0.50;;;18.20;70.10;;;;;;4924507;29;20478;-71
2021/06/04 05:04:00;;;;;;;0.45;0.32;;;18.10;69.90;;;;;;4922099;29;20463;-70
2021/06/04 05:06:28;;;;;;;0.85;0.40;;;18.10;70.40;;;;;;4923379;29;20027;-71
2021/06/04 05:08:55;;;;;;;1.15;0.57;;;18.00;70.50;;;;;;4906628;29;20043;-72
2021/06/04 05:11:24;;;;;;;1.02;0.45;;;17.90;70.80;;;;;;4925065;29;20028;-71
2021/06/04 05:13:52;;;;;;;0.70;0.40;;;17.90;70.10;;;;;;4919895;29;20050;-71
2021/06/04 05:16:20;;;;;;;0.95;0.60;;;17.90;71.00;;;;;;4924043;29;20023;-72
2021/06/04 05:18:47;;;;;;;1.00;0.50;;;17.90;70.90;;;;;;4923459;29;20047;-72
2021/06/04 05:21:17;;;;;;;1.10;0.73;;;17.80;70.60;;;;;;4924612;29;20024;-71
2021/06/04 05:23:45;;;;;;;1.10;0.65;;;17.80;71.00;;;;;;4926752;29;21602;-71
2021/06/04 05:26:13;;;;;;;1.20;0.40;;;17.80;70.60;;;;;;4925498;29;20363;-71
2021/06/04 05:28:42;;;;;;;1.38;0.45;;;17.90;71.70;;;;;;4923159;29;20497;-71
2021/06/04 05:31:11;;;;;;;0.30;0.28;;;18.00;71.40;;;;;;4925963;29;20114;-72
2021/06/04 05:33:42;;;;;;;1.55;0.68;;;18.00;71.20;;;;;;4921044;29;20050;-71
2021/06/04 05:36:16;;;;;;;2.55;0.88;;;18.10;71.70;;;;;;4920805;29;20044;-71
2021/06/04 05:38:48;;;;;;;2.05;0.70;;;18.20;71.30;;;;;;4925872;29;20139;-70
2021/06/04 05:41:18;;;;;;;0.63;0.50;;;18.10;70.70;;;;;;4922274;29;20505;-72
2021/06/04 05:43:47;;;;;;;0.35;0.30;;;18.10;70.80;;;;;;4926921;29;21010;-72
2021/06/04 05:46:17;;;;;;;0.70;0.50;;;17.90;71.90;;;;;;4928241;29;20039;-71
2021/06/04 05:48:45;;;;;;;0.80;0.63;;;17.90;70.90;;;;;;4928192;29;20039;-71
2021/06/04 05:51:18;;;;;;;0.68;0.50;;;17.80;72.20;;;;;;4927645;29;20036;-72
2021/06/04 05:53:47;;;;;;;0.93;0.60;;;17.70;72.10;;;;;;4926459;29;20118;-72
2021/06/04 05:56:16;;;;;;;1.55;0.80;;;17.60;71.30;;;;;;4925481;29;20031;-72
2021/06/04 05:58:45;;;;;;;3.08;1.00;;;17.40;72.00;;;;;;4928290;29;20032;-72
2021/06/04 06:01:18;;;;;;;1.85;0.90;;;17.40;72.00;;;;;;4930244;29;20055;-74
2021/06/04 06:03:45;;;;;;;1.42;0.60;;;17.30;71.90;;;;;;4929266;29;20028;-74
2021/06/04 06:06:13;;;;;;;0.75;0.70;;;17.20;72.10;;;;;;4927154;29;20506;-72
2021/06/04 06:08:42;;;;;;;0.90;0.60;;;17.20;73.50;;;;;;4927104;29;20032;-73
2021/06/04 06:11:13;;;;;;;4.03;0.50;;;17.10;73.60;;;;;;4927097;29;20444;-73
2021/06/04 06:13:41;;;;;;;0.70;0.70;;;17.10;73.50;;;;;;4927128;29;20427;-73
2021/06/04 06:16:10;;;;;;;1.10;0.85;;;17.20;73.30;;;;;;4928635;29;20470;-73
2021/06/04 06:18:37;;;;;;;1.10;0.55;;;17.40;72.20;;;;;;4927964;29;20024;-74
2021/06/04 06:21:05;;;;;;;0.40;0.40;;;17.60;72.00;;;;;;4927401;29;20454;-72
2021/06/04 06:23:36;;;;;;;1.13;0.50;;;17.70;72.70;;;;;;4926997;29;20028;-72
2021/06/04 06:26:22;;;;;;;1.10;0.80;;;17.70;72.50;;;;;;4926858;29;20567;-72
2021/06/04 06:28:51;;;;;;;0.75;0.50;;;17.60;71.70;;;;;;4930072;29;20431;-72
2021/06/04 06:31:22;;;;;;;0.90;0.70;;;17.50;72.30;;;;;;4926912;29;20163;-72
2021/06/04 06:33:54;;;;;;;1.02;0.40;;;17.40;72.60;;;;;;4927024;29;20111;-73
2021/06/04 06:36:27;;;;;;;0.32;0.30;;;17.20;72.80;;;;;;4928588;29;20067;-73
2021/06/04 06:38:56;;;;;;;1.63;0.30;;;16.90;73.90;;;;;;4924835;29;20032;-72
2021/06/04 06:41:25;;;;;;;4.40;0.50;;;16.80;73.40;;;;;;4926252;29;20028;-73
2021/06/04 06:43:53;;;;;;;1.40;0.40;;;16.70;73.30;;;;;;4928411;29;20031;-74
2021/06/04 06:46:23;;;;;;;0.80;0.25;;;16.60;73.60;;;;;;4927118;29;20035;-73
2021/06/04 06:48:50;;;;;;;3.00;1.15;;;16.50;73.90;;;;;;4926647;29;20036;-74
2021/06/04 06:51:19;;;;;;;2.45;1.55;;;16.40;74.70;;;;;;4910105;29;20124;-71
2021/06/04 06:53:48;;;;;;;1.58;0.70;;;16.30;74.70;;;;;;4930145;29;20068;-72
2021/06/04 06:56:18;;;;;;;0.30;0.25;;;16.20;74.70;;;;;;4926346;29;20032;-73
2021/06/04 06:58:46;;;;;;;0.90;0.25;;;16.10;75.00;;;;;;4925235;29;20140;-72
2021/06/04 07:01:15;;;;;;;0.40;0.30;;;16.00;75.50;;;;;;4924509;29;20451;-73
2021/06/04 07:03:43;;;;;;;0.43;0.30;;;15.90;75.90;;;;;;4930723;29;20501;-72
2021/06/04 07:06:33;;;;;;;0.52;0.30;;;15.90;75.80;;;;;;4926627;29;20039;-72
2021/06/04 07:09:00;;;;;;;0.52;0.30;;;15.90;75.90;;;;;;4926027;29;20028;-73
2021/06/04 07:11:35;;;;;;;0.50;0.20;;;15.80;75.60;;;;;;4928889;29;20071;-73
2021/06/04 07:14:04;;;;;;;0.30;0.30;;;15.80;75.90;;;;;;4927772;29;20071;-72
2021/06/04 07:16:32;;;;;;;0.57;0.40;;;15.70;75.90;;;;;;4928378;29;20027;-73
2021/06/04 07:18:59;;;;;;;0.70;0.50;;;15.70;76.50;;;;;;4929745;29;20050;-72
2021/06/04 07:21:28;;;;;;;1.40;0.45;;;15.60;76.90;;;;;;4930902;29;20071;-72
2021/06/04 07:23:57;;;;;;;0.40;0.30;;;15.50;76.90;;;;;;4912975;29;20024;-73
2021/06/04 07:26:27;;;;;;;0.40;0.30;;;15.50;77.10;;;;;;4925861;29;20024;-72
2021/06/04 07:29:00;;;;;;;0.85;0.40;;;15.40;77.20;;;;;;4929672;29;20039;-73
2021/06/04 07:31:30;;;;;;;0.77;0.60;;;15.40;77.60;;;;;;4925719;29;20023;-72
2021/06/04 07:34:02;;;;;;;1.23;0.82;;;15.40;77.80;;;;;;4925450;29;20036;-70
2021/06/04 07:36:33;;;;;;;1.25;0.43;;;15.30;77.90;;;;;;4929004;29;20039;-74
2021/06/04 07:39:01;;;;;;;0.68;0.40;;;15.30;78.40;;;;;;4929943;29;20032;-74
2021/06/04 07:41:30;;;;;;;0.73;0.55;;;15.20;77.80;;;;;;4925058;29;20035;-72
2021/06/04 07:43:57;;;;;;;0.80;0.70;;;15.20;78.40;;;;;;4926582;29;20031;-73
2021/06/04 07:46:26;;;;;;;1.80;1.30;;;15.10;79.40;;;;;;4927795;29;20119;-73
2021/06/04 07:48:54;;;;;;;2.17;1.25;;;15.00;78.60;;;;;;4930809;29;20038;-72
2021/06/04 07:51:31;;;;;;;2.15;0.90;;;15.00;79.70;;;;;;4928096;29;20566;-72
2021/06/04 07:53:59;;;;;;;1.10;0.70;;;15.00;79.00;;;;;;4927632;29;20040;-73
2021/06/04 07:56:27;;;;;;;0.90;0.50;;;14.90;78.50;;;;;;4925369;29;20019;-72
2021/06/04 07:58:54;;;;;;;1.23;0.73;;;14.90;79.20;;;;;;4928836;29;20800;-72
2021/06/04 08:01:22;;;;;;;1.27;0.47;;;14.90;79.80;;;;;;4927413;29;20055;-73
2021/06/04 08:03:50;;;;;;;1.40;0.40;;;14.90;79.40;;;;;;4926294;29;20471;-73
2021/06/04 08:06:19;;;;;;;0.80;0.32;;;14.80;79.50;;;;;;4928110;29;20039;-72
2021/06/04 08:08:49;;;;;;;0.90;0.57;;;14.80;79.80;;;;;;4926255;29;20077;-72
2021/06/04 08:11:33;;;;;;;1.05;0.68;;;14.70;80.10;;;;;;4926736;29;20028;-73
2021/06/04 08:14:06;;;;;;;1.63;0.60;;;14.70;80.80;;;;;;4925904;29;20494;-72
2021/06/04 08:16:35;;;;;;;1.50;0.73;;;14.70;81.30;;;;;;4924268;29;20036;-71
2021/06/04 08:19:03;;;;;;;1.83;0.38;;;14.60;80.90;;;;;;4920806;29;20031;-71
2021/06/04 08:21:41;;;;;;;0.22;0.20;;;14.60;81.60;;;;;;4928032;29;20038;-71
2021/06/04 08:24:11;;;;;;;0.28;0.20;;;14.50;81.50;;;;;;4923662;29;20024;-72
2021/06/04 08:26:40;;;;;;;0.52;0.20;;;14.50;82.30;;;;;;4927250;29;20028;-73
2021/06/04 08:29:09;;;;;;;0.50;0.40;;;14.40;81.60;;;;;;4925873;29;20031;-71
2021/06/04 08:31:38;;;;;;;0.65;0.30;;;14.40;82.40;;;;;;4925144;29;20036;-71
2021/06/04 08:34:06;;;;;;;0.57;0.40;;;14.30;83.00;;;;;;4927505;29;20042;-71
2021/06/04 08:36:37;;;;;;;0.60;0.32;;;14.30;83.80;;;;;;4932761;29;20046;-71
2021/06/04 08:39:10;;;;;;;0.50;0.38;;;14.10;84.40;;;;;;4930210;29;20554;-71
2021/06/04 08:41:53;;;;;;;1.10;0.38;;;14.00;85.20;;;;;;4927178;29;20752;-71
2021/06/04 08:44:41;;;;;;;0.55;0.40;;;13.90;84.90;;;;;;4930697;29;20027;-72
2021/06/04 08:47:34;;;;;;;1.02;0.60;;;13.80;85.30;;;;;;4923481;29;20027;-71
2021/06/04 08:50:04;;;;;;;0.77;0.77;;;13.80;85.90;;;;;;4919198;29;20039;-71
2021/06/04 08:52:59;;;;;;;1.27;0.77;;;13.80;85.20;;;;;;4926896;29;20027;-72
2021/06/04 08:55:44;;;;;;;1.65;1.00;;;13.80;85.10;;;;;;4926041;29;20087;-71
2021/06/04 08:58:27;;;;;;;3.00;1.00;;;13.80;85.10;;;;;;4925337;29;20103;-71
2021/06/04 09:00:59;;;;;;;1.75;1.08;;;13.80;85.50;;;;;;4923854;29;20059;-71
2021/06/04 09:03:31;;;;;;;4.63;2.00;;;13.80;85.70;;;;;;4925572;29;21796;-70
2021/06/04 09:06:21;;;;;;;2.80;1.88;;;13.80;84.90;;;;;;4926797;29;20028;-73
2021/06/04 09:08:49;;;;;;;1.75;0.98;;;13.80;85.10;;;;;;4891382;29;20119;-71
2021/06/04 09:11:36;;;;;;;0.88;0.60;;;13.90;84.70;;;;;;4923218;29;20036;-71
2021/06/04 09:14:04;;;;;;;1.17;0.60;;;13.80;84.90;;;;;;4922133;29;20049;-71
2021/06/04 09:16:43;;;;;;;2.28;0.60;;;13.80;85.00;;;;;;4929108;29;20036;-72
2021/06/04 09:19:30;;;;;;;1.77;0.80;;;13.70;85.70;;;;;;4929237;29;20107;-71
2021/06/04 09:21:58;;;;;;;1.48;0.80;;;13.70;85.70;;;;;;4926496;29;20028;-71
2021/06/04 09:24:57;;;;;;;1.67;0.90;;;13.70;86.00;;;;;;4926133;29;20424;-71
2021/06/04 09:27:37;;;;;;;2.67;0.95;;;13.70;86.70;;;;;;4910480;29;20514;-71
2021/06/04 09:30:12;;;;;;;2.63;1.38;;;13.60;87.70;;;;;;4927597;29;20099;-72
2021/06/04 09:32:41;;;;;;;1.92;1.00;;;13.50;88.00;;;;;;4924798;29;20035;-71
2021/06/04 09:35:19;;;;;;;2.17;0.93;;;13.40;88.60;;;;;;4925398;29;20115;-72
2021/06/04 09:37:46;;;;;;;1.48;0.75;;;13.30;90.10;;;;;;4927690;29;20491;-71
2021/06/04 09:40:30;;;;;;;1.05;0.80;;;13.20;89.70;;;;;;4927536;29;20095;-70
2021/06/04 09:43:21;;;;;;;1.48;0.60;;;13.20;89.00;;;;;;4926469;29;20031;-71
2021/06/04 09:46:00;;;;;;;0.75;0.50;;;13.20;89.60;;;;;;4926802;29;20111;-71
2021/06/04 09:48:52;;;;;;;0.85;0.45;;;13.20;89.70;;;;;;4925320;29;20040;-72
2021/06/04 09:51:25;;;;;;;2.03;0.68;;;13.20;90.00;;;;;;4906688;29;20043;-72
2021/06/04 09:53:55;;;;;;;1.98;0.80;;;13.10;89.80;;;;;;4926814;29;20031;-72
2021/06/04 09:56:33;;;;;;;2.13;0.90;;;13.10;90.40;;;;;;4927021;29;20035;-72
2021/06/04 09:59:10;;;;;;;1.15;0.77;;;13.00;90.90;;;;;;4924206;29;20035;-72
2021/06/04 10:01:54;;;;;;;1.52;1.25;;;12.90;90.90;;;;;;4922200;29;20534;-72
2021/06/04 10:04:31;;;;;;;1.70;1.50;;;12.80;91.00;;;;;;4924326;29;20035;-71
2021/06/04 10:07:05;;;;;;;1.73;1.05;;;12.70;91.50;;;;;;4922757;29;20063;-71
2021/06/04 10:09:43;;;;;;;4.05;1.13;;;12.60;92.30;;;;;;4922509;29;20039;-72
2021/06/04 10:12:31;;;;;;;2.80;1.90;;;12.60;92.60;;;;;;4924586;29;20127;-72
2021/06/04 10:15:11;;;;;;;2.40;1.80;;;12.50;92.80;;;;;;4925167;29;20047;-70
2021/06/04 10:20:48;;;;;;;1.17;0.80;;;12.40;92.40;;;;;;4925591;29;20152;-72
2021/06/04 10:23:22;;;;;;;4.30;1.27;;;12.40;92.10;;;;;;4924152;29;20110;-71
2021/06/04 10:26:22;;;;;;;1.80;1.13;;;12.50;91.70;;;;;;4926821;29;20116;-72
2021/06/04 10:28:55;;;;;;;2.08;0.90;;;12.70;91.10;;;;;;4930972;29;20486;-72
2021/06/04 10:31:36;;;;;;;0.85;0.50;;;12.80;91.20;;;;;;4928546;29;20509;-73
2021/06/04 10:34:20;;;;;;;2.08;0.43;;;12.90;90.90;;;;;;4930773;29;20031;-72
2021/06/04 10:36:53;;;;;;;2.13;0.40;;;12.90;91.00;;;;;;4931414;29;20087;-72
2021/06/04 10:39:38;;;;;;;2.15;0.47;;;13.00;90.70;;;;;;4927167;29;20020;-70
2021/06/04 10:42:43;;;;;;;4.22;0.40;;;13.10;90.60;;;;;;4935908;29;20086;-71
2021/06/04 10:45:29;;;;;;;0.95;0.35;;;13.20;90.30;;;;;;4899385;29;20535;-71
2021/06/04 10:48:04;;;;;;;0.65;0.30;;;13.30;89.90;;;;;;4923491;29;20474;-71
2021/06/04 10:50:41;;;;;;;1.75;0.30;;;13.40;89.70;;;;;;4923836;29;20043;-72
2021/06/04 10:53:39;;;;;;;0.32;0.30;;;13.50;89.40;;;;;;4931164;29;20407;-71
2021/06/04 10:56:19;;;;;;;0.93;0.28;;;13.40;90.00;;;;;;4928635;29;20039;-72
2021/06/04 10:59:07;;;;;;;0.20;0.20;;;13.50;90.00;;;;;;4925399;29;20554;-71
2021/06/04 11:01:58;;;;;;;0.35;0.20;;;13.40;89.80;;;;;;4928226;29;20048;-71
2021/06/04 11:05:04;;;;;;;1.25;0.47;;;13.50;89.60;;;;;;4924420;29;20398;-71
2021/06/04 11:07:31;;;;;;;0.30;0.30;;;13.50;89.20;;;;;;4925179;29;20071;-72
2021/06/04 11:10:24;;;;;;;0.52;0.30;;;13.40;89.40;;;;;;4929321;29;20114;-71
2021/06/04 11:13:09;;;;;;;1.17;0.45;;;13.40;89.80;;;;;;4931871;29;20028;-71
2021/06/04 11:16:02;;;;;;;1.30;0.38;;;13.30;90.00;;;;;;4927031;29;20036;-72
2021/06/04 11:18:44;;;;;;;1.02;0.43;;;13.20;90.10;;;;;;4928972;29;20042;-70
2021/06/04 11:21:36;;;;;;;0.65;0.40;;;13.20;90.30;;;;;;4925920;29;20613;-72
2021/06/04 11:24:21;;;;;;;0.82;0.40;;;13.20;90.40;;;;;;4919008;29;20046;-71
2021/06/04 11:26:53;;;;;;;0.90;0.40;;;13.20;90.50;;;;;;4928801;29;20044;-72
2021/06/04 11:29:28;;;;;;;0.22;0.20;;;13.10;90.60;;;;;;4927071;29;20024;-71
2021/06/04 11:32:07;;;;;;;2.35;0.43;;;13.20;90.70;;;;;;4930485;29;20051;-71
2021/06/04 11:34:44;;;;;;;0.75;0.40;;;13.10;90.70;;;;;;4925460;29;20109;-71
2021/06/04 11:37:21;;;;;;;0.75;0.40;;;13.10;90.80;;;;;;4932573;29;20035;-71
2021/06/04 11:39:52;;;;;;;0.45;0.30;;;13.20;90.90;;;;;;4929674;28;20044;-72
2021/06/04 11:42:30;;;;;;;0.38;0.30;;;13.10;90.90;;;;;;4929954;29;20029;-72
2021/06/04 11:45:01;;;;;;;0.60;0.40;;;13.20;90.80;;;;;;4930471;29;20151;-72
2021/06/04 11:47:33;;;;;;;1.15;0.40;;;13.20;90.80;;;;;;4927164;29;20082;-73
2021/06/04 11:50:02;;;;;;;2.65;2.25;;;13.20;90.90;;;;;;4926622;29;20035;-73
2021/06/04 11:52:35;;;;;;;1.10;1.10;;;13.20;90.70;;;;;;4926484;29;20035;-72
2021/06/04 11:55:23;;;;;;;0.80;0.75;;;13.20;90.80;;;;;;4928906;29;20119;-71
2021/06/04 11:58:03;;;;;;;0.90;0.60;;;13.20;90.90;;;;;;4927536;29;20078;-71
2021/06/04 12:01:04;;;;;;;1.73;0.38;;;13.20;90.90;;;;;;4929290;29;20059;-72
2021/06/04 12:03:35;;;;;;;0.52;0.45;;;13.20;91.00;;;;;;4925567;29;20040;-72
2021/06/04 12:06:24;;;;;;;0.20;0.15;;;13.10;91.00;;;;;;4930532;29;20040;-71
2021/06/04 12:08:53;;;;;;;0.30;0.20;;;13.00;90.90;;;;;;4926151;29;20053;-74
2021/06/04 12:11:20;;;;;;;0.47;0.30;;;13.00;90.60;;;;;;4928060;29;20024;-72
2021/06/04 12:13:52;;;;;;;1.00;0.47;;;13.00;90.60;;;;;;4925942;29;20060;-71
2021/06/04 12:16:28;;;;;;;1.38;0.75;;;13.00;90.80;;;;;;4926223;29;20063;-71
2021/06/04 12:19:04;;;;;;;1.25;0.60;;;13.00;90.80;;;;;;4926571;29;20084;-71
2021/06/04 12:21:41;;;;;;;1.52;0.70;;;13.00;90.70;;;;;;4932370;29;20040;-71
2021/06/04 12:24:29;;;;;;;1.95;0.50;;;13.00;90.80;;;;;;4930074;29;20467;-73
2021/06/04 12:27:14;;;;;;;0.47;0.40;;;13.00;91.00;;;;;;4923836;29;20032;-72
2021/06/04 12:29:53;;;;;;;1.20;1.02;;;13.10;91.10;;;;;;4924709;29;20043;-71
2021/06/04 12:32:49;;;;;;;0.90;0.20;;;13.20;91.00;;;;;;4930175;29;20514;-71
2021/06/04 12:35:40;;;;;;;1.07;0.30;;;13.10;90.90;;;;;;4927965;29;20054;-71
2021/06/04 12:38:32;;;;;;;0.30;0.30;;;13.10;91.00;;;;;;4931685;29;20289;-72
2021/06/04 12:41:02;;;;;;;0.32;0.30;;;13.00;91.50;;;;;;4926938;29;20067;-72
2021/06/04 12:43:36;;;;;;;1.50;0.68;;;13.00;91.70;;;;;;4929334;29;20027;-72
2021/06/04 12:46:23;;;;;;;0.50;0.50;;;13.00;91.70;;;;;;4924925;29;20028;-72
2021/06/04 12:49:09;;;;;;;0.88;0.40;;;13.10;91.90;;;;;;4923870;29;20593;-72
2021/06/04 12:51:43;;;;;;;9.05;3.13;;;13.00;92.10;;;;;;4927101;29;20028;-72
2021/06/04 12:54:12;;;;;;;3.13;2.10;;;12.90;92.20;;;;;;4910320;29;20502;-71
2021/06/04 12:56:46;;;;;;;2.17;1.20;;;12.80;92.40;;;;;;4928414;29;20042;-72
2021/06/04 12:59:21;;;;;;;1.27;0.40;;;12.70;92.90;;;;;;4923811;29;20039;-72
2021/06/04 13:02:01;;;;;;;0.85;0.50;;;12.60;92.90;;;;;;4925537;29;20044;-71
2021/06/04 13:04:42;;;;;;;0.90;0.63;;;12.60;93.10;;;;;;4924898;29;20032;-71
2021/06/04 13:07:30;;;;;;;1.85;0.73;;;12.60;93.30;;;;;;4926104;29;20039;-71
2021/06/04 13:10:26;;;;;;;2.00;0.55;;;12.60;93.10;;;;;;4923567;29;20059;-71
2021/06/04 13:13:23;;;;;;;0.95;0.60;;;12.70;92.70;;;;;;4929600;29;20118;-71
2021/06/04 13:15:50;;;;;;;2.50;0.70;;;12.70;92.80;;;;;;4926368;29;20089;-72
2021/06/04 13:18:20;;;;;;;1.63;0.90;;;12.70;92.80;;;;;;4925485;29;20383;-72
2021/06/04 13:20:51;;;;;;;1.05;0.50;;;12.70;92.60;;;;;;4928098;29;20035;-72
2021/06/04 13:23:26;;;;;;;0.98;0.45;;;12.80;92.70;;;;;;4928850;29;20035;-72
2021/06/04 13:26:09;;;;;;;1.13;0.73;;;12.80;92.60;;;;;;4928862;29;20035;-72
2021/06/04 13:28:53;;;;;;;1.75;0.50;;;12.80;92.70;;;;;;4924171;29;20035;-71
2021/06/04 13:31:32;;;;;;;0.35;0.32;;;12.80;92.70;;;;;;4926016;29;20034;-72